createdAt,value
2023-03-07T00:02:18.427Z,18.50
2023-03-07T00:04:45.461Z,16.00
2023-03-07T00:07:11.190Z,15.03
2023-03-07T00:09:36.912Z,18.30
2023-03-07T00:12:03.655Z,14.50
2023-03-07T00:14:29.477Z,16.07
2023-03-07T00:16:55.195Z,16.80
2023-03-07T00:19:20.949Z,19.13
2023-03-07T00:21:46.712Z,19.30
2023-03-07T00:24:12.490Z,16.77
2023-03-07T00:26:39.118Z,18.77
2023-03-07T00:29:06.830Z,18.07
2023-03-07T00:31:33.089Z,21.07
2023-03-07T00:33:59.077Z,20.30
2023-03-07T00:36:25.142Z,19.93
2023-03-07T00:38:51.451Z,22.40
2023-03-07T00:41:18.483Z,22.67
2023-03-07T00:43:46.357Z,19.73
2023-03-07T00:46:12.695Z,21.33
2023-03-07T00:48:39.388Z,23.37
2023-03-07T00:51:06.151Z,19.30
2023-03-07T00:53:31.905Z,21.57
2023-03-07T00:56:01.845Z,20.70
2023-03-07T00:58:28.771Z,21.38
2023-03-07T01:00:54.653Z,19.70
2023-03-07T01:03:20.870Z,19.70
2023-03-07T01:05:46.869Z,21.00
2023-03-07T01:08:12.952Z,20.03
2023-03-07T01:10:38.691Z,18.40
2023-03-07T01:13:04.571Z,18.30
2023-03-07T01:15:30.718Z,16.10
2023-03-07T01:17:56.589Z,18.57
2023-03-07T01:20:22.358Z,17.47
2023-03-07T01:22:48.084Z,20.17
2023-03-07T01:25:13.829Z,19.37
2023-03-07T01:27:39.591Z,19.57
2023-03-07T01:30:06.603Z,17.67
2023-03-07T01:32:32.513Z,20.10
2023-03-07T01:34:58.395Z,19.63
2023-03-07T01:37:24.100Z,18.83
2023-03-07T01:39:50.785Z,18.33
2023-03-07T01:42:16.505Z,21.33
2023-03-07T01:45:01.315Z,22.57
2023-03-07T01:47:27.255Z,23.33
2023-03-07T01:49:53.690Z,22.70
2023-03-07T01:52:36.814Z,22.43
2023-03-07T01:55:05.567Z,25.47
2023-03-07T01:57:33.021Z,26.23
2023-03-07T02:00:00.467Z,24.23
2023-03-07T02:02:27.086Z,23.73
2023-03-07T02:05:11.392Z,26.77
2023-03-07T02:07:40.105Z,27.17
2023-03-07T02:10:06.411Z,28.63
2023-03-07T02:12:32.349Z,28.43
2023-03-07T02:14:58.091Z,27.87
2023-03-07T02:17:24.254Z,29.97
2023-03-07T02:20:01.557Z,31.27
2023-03-07T02:22:27.906Z,30.07
2023-03-07T02:24:53.638Z,28.20
2023-03-07T02:27:19.491Z,34.33
2023-03-07T02:29:45.434Z,31.73
2023-03-07T02:32:11.282Z,28.60
2023-03-07T02:34:37.134Z,33.03
2023-03-07T02:37:15.722Z,29.07
2023-03-07T02:39:42.517Z,32.63
2023-03-07T02:42:09.527Z,32.43
2023-03-07T02:44:35.260Z,31.27
2023-03-07T02:47:00.991Z,29.13
2023-03-07T02:49:26.699Z,32.50
2023-03-07T02:51:56.915Z,31.93
2023-03-07T02:54:22.962Z,30.27
2023-03-07T02:56:48.676Z,34.30
2023-03-07T02:59:14.385Z,35.27
2023-03-07T03:01:40.158Z,30.33
2023-03-07T03:04:05.876Z,31.90
2023-03-07T03:06:31.601Z,33.90
2023-03-07T03:08:57.341Z,33.13
2023-03-07T03:11:23.051Z,34.63
2023-03-07T03:13:48.846Z,31.17
2023-03-07T03:16:14.613Z,29.40
2023-03-07T03:18:40.571Z,35.97
2023-03-07T03:21:07.531Z,32.30
2023-03-07T03:23:33.252Z,32.03
2023-03-07T03:25:59.544Z,34.67
2023-03-07T03:28:25.319Z,33.77
2023-03-07T03:30:58.641Z,36.10
2023-03-07T03:33:24.845Z,35.17
2023-03-07T03:35:50.567Z,29.77
2023-03-07T03:38:16.455Z,30.70
2023-03-07T03:40:42.174Z,33.83
2023-03-07T03:43:07.934Z,28.67
2023-03-07T03:45:33.652Z,27.57
2023-03-07T03:47:59.350Z,28.77
2023-03-07T03:50:25.080Z,31.43
2023-03-07T03:52:50.826Z,34.20
2023-03-07T03:55:16.563Z,33.03
2023-03-07T03:57:42.389Z,32.77
2023-03-07T04:00:08.656Z,32.20
2023-03-07T04:02:34.579Z,28.23
2023-03-07T04:05:00.587Z,30.10
2023-03-07T04:07:28.481Z,28.50
2023-03-07T04:09:54.287Z,29.77
2023-03-07T04:12:20.071Z,27.58
2023-03-07T04:14:45.772Z,30.90
2023-03-07T04:17:11.630Z,29.47
2023-03-07T04:19:37.662Z,29.20
2023-03-07T04:22:03.516Z,30.27
2023-03-07T04:24:29.204Z,30.35
2023-03-07T04:26:54.920Z,27.73
2023-03-07T04:29:20.639Z,27.77
2023-03-07T04:31:46.404Z,32.03
2023-03-07T04:34:12.160Z,32.63
2023-03-07T04:36:38.030Z,30.20
2023-03-07T04:39:04.067Z,33.40
2023-03-07T04:41:30.102Z,32.10
2023-03-07T04:43:55.926Z,34.57
2023-03-07T04:46:21.833Z,39.17
2023-03-07T04:48:47.667Z,33.97
2023-03-07T04:51:13.948Z,30.47
2023-03-07T04:53:39.835Z,33.63
2023-03-07T04:56:07.610Z,29.43
2023-03-07T04:58:34.106Z,32.33
2023-03-07T05:01:00.517Z,28.97
2023-03-07T05:03:27.310Z,31.37
2023-03-07T05:05:53.460Z,33.40
2023-03-07T05:08:19.647Z,31.00
2023-03-07T05:10:45.593Z,29.93
2023-03-07T05:13:11.603Z,34.23
2023-03-07T05:15:37.379Z,32.20
2023-03-07T05:18:03.224Z,22.40
2023-03-07T05:20:29.159Z,33.53
2023-03-07T05:22:57.883Z,30.87
2023-03-07T05:25:23.900Z,29.20
2023-03-07T05:27:49.964Z,30.00
2023-03-07T05:30:16.235Z,27.10
2023-03-07T05:32:42.202Z,28.37
2023-03-07T05:35:14.405Z,29.27
2023-03-07T05:37:40.214Z,29.37
2023-03-07T05:40:09.296Z,25.27
2023-03-07T05:42:35.357Z,25.33
2023-03-07T05:45:01.499Z,25.90
2023-03-07T05:47:27.446Z,25.13
2023-03-07T05:49:53.400Z,28.20
2023-03-07T05:52:20.120Z,25.57
2023-03-07T05:54:45.926Z,22.40
2023-03-07T05:57:11.860Z,26.13
2023-03-07T05:59:37.964Z,22.07
2023-03-07T06:02:03.778Z,25.67
2023-03-07T06:04:29.624Z,22.50
2023-03-07T06:06:55.686Z,24.90
2023-03-07T06:09:24.863Z,22.67
2023-03-07T06:11:58.012Z,22.30
2023-03-07T06:14:24.333Z,25.47
2023-03-07T06:16:50.299Z,23.13
2023-03-07T06:19:25.723Z,23.50
2023-03-07T06:21:56.544Z,22.63
2023-03-07T06:35:28.180Z,23.87
2023-03-07T06:37:54.316Z,24.93
2023-03-07T06:40:20.292Z,23.38
2023-03-07T06:42:46.377Z,25.02
2023-03-07T06:45:12.193Z,24.90
2023-03-07T06:47:38.071Z,21.00
2023-03-07T06:50:04.330Z,25.20
2023-03-07T06:52:30.186Z,20.93
2023-03-07T06:54:56.841Z,19.65
2023-03-07T06:57:24.091Z,23.50
2023-03-07T06:59:50.702Z,20.80
2023-03-07T07:02:17.787Z,24.63
2023-03-07T07:04:45.183Z,22.92
2023-03-07T07:07:11.164Z,23.63
2023-03-07T07:09:37.994Z,21.38
2023-03-07T07:12:08.227Z,21.27
2023-03-07T07:14:39.400Z,22.58
2023-03-07T07:17:05.389Z,20.58
2023-03-07T07:19:31.534Z,18.88
2023-03-07T07:21:57.657Z,21.08
2023-03-07T07:24:23.889Z,18.95
2023-03-07T07:26:49.767Z,22.88
2023-03-07T07:29:15.999Z,18.33
2023-03-07T07:31:42.953Z,19.17
2023-03-07T07:34:08.968Z,20.15
2023-03-07T07:36:36.427Z,16.83
2023-03-07T07:39:04.612Z,17.45
2023-03-07T07:41:31.473Z,20.90
2023-03-07T07:43:59.326Z,19.95
2023-03-07T07:46:30.149Z,16.60
2023-03-07T07:49:02.712Z,18.27
2023-03-07T07:51:28.537Z,17.05
2023-03-07T07:53:57.950Z,17.83
2023-03-07T07:56:24.189Z,15.85
2023-03-07T07:58:50.070Z,18.85
2023-03-07T08:01:17.023Z,18.33
2023-03-07T08:03:43.562Z,15.68
2023-03-07T08:06:10.400Z,17.02
2023-03-07T08:08:38.131Z,15.93
2023-03-07T08:13:46.797Z,17.42
2023-03-07T08:16:14.286Z,18.45
2023-03-07T08:19:17.673Z,17.33
2023-03-07T08:21:43.644Z,16.77
2023-03-07T08:24:09.613Z,17.20
2023-03-07T08:26:35.855Z,17.45
2023-03-07T08:29:01.905Z,22.00
2023-03-07T08:31:27.982Z,13.85
2023-03-07T08:33:54.594Z,17.08
2023-03-07T08:36:20.609Z,14.60
2023-03-07T08:38:50.986Z,13.43
2023-03-07T08:41:17.940Z,17.92
2023-03-07T08:43:43.860Z,14.20
2023-03-07T08:46:09.850Z,14.13
2023-03-07T08:48:36.366Z,14.52
2023-03-07T08:51:06.605Z,12.70
2023-03-07T08:53:32.571Z,14.13
2023-03-07T08:56:01.005Z,12.23
2023-03-07T08:58:26.914Z,12.43
2023-03-07T09:00:52.766Z,11.70
2023-03-07T09:03:18.628Z,12.13
2023-03-07T09:05:45.169Z,12.93
2023-03-07T09:08:11.083Z,11.85
2023-03-07T09:10:36.987Z,13.38
2023-03-07T09:13:02.799Z,12.45
2023-03-07T09:15:29.132Z,13.35
2023-03-07T09:18:16.846Z,13.07
2023-03-07T09:20:42.761Z,9.80
2023-03-07T09:23:10.075Z,11.70
2023-03-07T09:25:36.491Z,11.18
2023-03-07T09:28:03.697Z,10.75
2023-03-07T09:30:29.552Z,9.13
2023-03-07T09:32:56.453Z,10.55
2023-03-07T09:35:22.472Z,9.50
2023-03-07T09:37:48.512Z,8.70
2023-03-07T09:40:24.519Z,9.93
2023-03-07T09:43:04.078Z,9.30
2023-03-07T09:45:30.500Z,10.73
2023-03-07T09:48:15.102Z,9.35
2023-03-07T09:50:43.919Z,8.43
2023-03-07T09:53:15.982Z,8.98
2023-03-07T09:55:42.526Z,9.20
2023-03-07T09:58:16.510Z,9.63
2023-03-07T10:00:42.881Z,8.00
2023-03-07T10:03:12.015Z,9.45
2023-03-07T10:05:43.646Z,9.48
2023-03-07T10:08:13.177Z,8.73
2023-03-07T10:10:41.073Z,9.98
2023-03-07T10:13:25.487Z,8.25
2023-03-07T10:15:53.550Z,8.32
2023-03-07T10:18:50.697Z,8.57
2023-03-07T10:21:23.376Z,10.23
2023-03-07T10:23:55.090Z,8.95
2023-03-07T10:26:24.050Z,12.48
2023-03-07T10:28:50.196Z,10.55
2023-03-07T10:31:22.093Z,8.70
2023-03-07T10:33:48.906Z,8.63
2023-03-07T10:36:14.744Z,8.27
2023-03-07T10:38:51.081Z,8.13
2023-03-07T10:41:20.358Z,9.27
2023-03-07T10:43:47.321Z,10.50
2023-03-07T10:46:24.754Z,8.38
2023-03-07T10:48:52.752Z,9.48
2023-03-07T10:51:35.932Z,7.72
2023-03-07T10:54:02.253Z,9.38
2023-03-07T10:56:28.061Z,7.95
2023-03-07T10:59:00.875Z,9.07
2023-03-07T11:01:27.795Z,8.02
2023-03-07T11:03:58.624Z,7.57
2023-03-07T11:06:44.050Z,8.18
2023-03-07T11:09:18.506Z,7.70
2023-03-07T11:11:48.530Z,8.60
2023-03-07T11:14:16.489Z,7.10
2023-03-07T11:16:53.337Z,6.55
2023-03-07T11:19:44.881Z,7.95
2023-03-07T11:22:21.057Z,6.35
2023-03-07T11:25:07.515Z,6.50
2023-03-07T11:27:35.430Z,6.28
2023-03-07T11:30:19.286Z,5.80
2023-03-07T11:33:11.498Z,4.97
2023-03-07T11:35:40.368Z,4.28
2023-03-07T11:38:06.213Z,4.85
2023-03-07T11:40:40.316Z,3.20
2023-03-07T11:43:12.680Z,3.13
2023-03-07T11:45:47.882Z,3.42
2023-03-07T11:48:29.195Z,1.75
2023-03-07T11:50:57.801Z,4.80
2023-03-07T11:53:38.798Z,1.88
2023-03-07T11:56:11.268Z,2.60
2023-03-07T11:58:56.244Z,2.53
2023-03-07T12:01:32.309Z,1.95
2023-03-07T12:04:12.465Z,1.27
2023-03-07T12:06:38.432Z,1.60
2023-03-07T12:09:16.893Z,1.67
2023-03-07T12:12:04.945Z,1.48
2023-03-07T12:14:40.361Z,3.75
2023-03-07T12:17:12.419Z,2.72
2023-03-07T12:19:48.599Z,2.45
2023-03-07T12:22:14.971Z,1.33
2023-03-07T12:24:59.799Z,4.72
2023-03-07T12:27:30.356Z,1.38
2023-03-07T12:29:59.171Z,2.17
2023-03-07T12:32:27.212Z,1.77
2023-03-07T12:34:55.579Z,2.65
2023-03-07T12:37:24.124Z,3.50
2023-03-07T12:40:03.787Z,4.53
2023-03-07T12:42:33.404Z,2.42
2023-03-07T12:45:14.713Z,7.30
2023-03-07T12:48:09.119Z,1.52
2023-03-07T12:50:34.929Z,3.72
2023-03-07T12:53:23.965Z,3.20
2023-03-07T12:55:55.970Z,3.10
2023-03-07T12:58:39.538Z,3.78
2023-03-07T13:01:17.272Z,3.40
2023-03-07T13:04:13.004Z,3.88
2023-03-07T13:06:41.048Z,2.22
2023-03-07T13:09:08.481Z,2.45
2023-03-07T13:11:35.206Z,5.43
2023-03-07T13:14:01.977Z,3.30
2023-03-07T13:16:30.550Z,4.15
2023-03-07T13:19:26.684Z,3.90
2023-03-07T13:21:53.048Z,5.40
2023-03-07T13:24:29.606Z,6.97
2023-03-07T13:29:57.069Z,5.47
2023-03-07T13:32:42.074Z,4.88
2023-03-07T13:35:11.514Z,4.95
2023-03-07T13:37:48.357Z,3.97
2023-03-07T13:40:26.377Z,3.80
2023-03-07T13:42:52.399Z,2.97
2023-03-07T13:45:36.798Z,4.15
2023-03-07T13:51:12.036Z,3.65
2023-03-07T13:53:55.836Z,2.33
2023-03-07T13:56:28.390Z,2.97
2023-03-07T13:58:59.871Z,4.15
2023-03-07T14:01:36.684Z,2.28
2023-03-07T14:04:33.203Z,3.40
2023-03-07T14:07:24.263Z,1.73
2023-03-07T14:09:53.639Z,2.05
2023-03-07T14:12:22.586Z,2.42
2023-03-07T14:14:49.009Z,6.53
2023-03-07T14:17:46.897Z,5.95
2023-03-07T14:20:22.859Z,3.33
2023-03-07T14:22:58.795Z,2.58
2023-03-07T14:25:31.561Z,3.75
2023-03-07T14:27:58.711Z,3.08
2023-03-07T14:33:17.119Z,1.25
2023-03-07T14:38:25.780Z,3.00
2023-03-07T14:43:53.734Z,2.10
2023-03-07T14:46:42.728Z,1.73
2023-03-07T14:49:28.660Z,2.10
2023-03-07T14:51:54.769Z,3.17
2023-03-07T14:54:33.435Z,0.95
2023-03-07T14:57:00.345Z,2.67
2023-03-07T14:59:29.322Z,2.05
2023-03-07T15:01:56.602Z,2.88
2023-03-07T15:04:27.057Z,1.40
2023-03-07T15:06:55.060Z,1.85
2023-03-07T15:09:23.387Z,6.43
2023-03-07T15:12:01.026Z,2.53
2023-03-07T15:14:27.042Z,3.40
2023-03-07T15:17:04.335Z,1.40
2023-03-07T15:19:47.020Z,3.25
2023-03-07T15:25:02.536Z,2.10
2023-03-07T15:27:30.922Z,2.15
2023-03-07T15:32:42.004Z,2.78
2023-03-07T15:35:08.494Z,2.30
2023-03-07T15:37:35.662Z,1.67
2023-03-07T15:40:08.380Z,4.05
2023-03-07T15:42:50.664Z,2.45
2023-03-07T15:45:38.517Z,1.55
2023-03-07T15:48:34.296Z,4.45
2023-03-07T15:51:01.813Z,4.28
2023-03-07T15:53:33.001Z,2.15
2023-03-07T15:56:03.385Z,2.95
2023-03-07T15:58:30.717Z,2.03
2023-03-07T16:01:03.977Z,2.72
2023-03-07T16:03:31.006Z,2.38
2023-03-07T16:05:58.164Z,3.70
2023-03-07T16:08:24.370Z,1.85
2023-03-07T16:11:01.684Z,2.03
2023-03-07T16:13:32.172Z,2.58
2023-03-07T16:15:59.231Z,1.77
2023-03-07T16:18:29.379Z,1.95
2023-03-07T16:20:57.672Z,3.17
2023-03-07T16:23:23.621Z,3.55
2023-03-07T16:25:49.593Z,2.90
2023-03-07T16:28:15.789Z,2.05
2023-03-07T16:30:44.983Z,3.15
2023-03-07T16:33:14.653Z,2.28
2023-03-07T16:35:41.949Z,3.08
2023-03-07T16:38:08.209Z,2.67
2023-03-07T16:40:34.357Z,2.42
2023-03-07T16:43:00.875Z,5.35
2023-03-07T16:45:31.047Z,4.22
2023-03-07T16:48:13.303Z,5.50
2023-03-07T16:50:40.132Z,4.78
2023-03-07T16:55:51.384Z,3.65
2023-03-07T16:58:24.023Z,2.40
2023-03-07T17:00:54.843Z,4.20
2023-03-07T17:03:21.115Z,2.47
2023-03-07T17:05:47.422Z,3.45
2023-03-07T17:08:14.631Z,4.10
2023-03-07T17:10:49.866Z,2.20
2023-03-07T17:13:17.056Z,4.07
2023-03-07T17:15:44.886Z,3.22
2023-03-07T17:18:22.158Z,5.47
2023-03-07T17:20:47.949Z,3.00
2023-03-07T17:23:14.259Z,2.45
2023-03-07T17:25:40.062Z,4.95
2023-03-07T17:28:08.741Z,3.80
2023-03-07T17:30:34.963Z,2.42
2023-03-07T17:33:03.260Z,2.80
2023-03-07T17:35:30.913Z,6.03
2023-03-07T17:37:56.846Z,4.65
2023-03-07T17:40:23.327Z,3.95
2023-03-07T17:42:50.455Z,2.63
2023-03-07T17:45:16.707Z,6.57
2023-03-07T17:47:55.081Z,4.18
2023-03-07T17:50:24.936Z,2.50
2023-03-07T17:52:51.487Z,4.28
2023-03-07T17:57:59.604Z,2.63
2023-03-07T18:00:25.558Z,2.90
2023-03-07T18:05:33.667Z,3.85
2023-03-07T18:07:59.651Z,4.07
2023-03-07T18:10:32.044Z,3.08
2023-03-07T18:12:57.973Z,3.15
2023-03-07T18:15:24.908Z,5.50
2023-03-07T18:18:25.324Z,4.68
2023-03-07T18:21:00.742Z,3.38
2023-03-07T18:23:27.572Z,4.30
2023-03-07T18:25:57.587Z,6.57
2023-03-07T18:28:25.637Z,5.05
2023-03-07T18:33:57.609Z,2.78
2023-03-07T18:36:24.945Z,3.00
2023-03-07T18:39:01.070Z,3.10
2023-03-07T18:41:27.764Z,6.32
2023-03-07T18:43:54.448Z,4.05
2023-03-07T18:46:21.825Z,5.07
2023-03-07T18:48:47.990Z,4.43
2023-03-07T18:53:58.414Z,4.03
2023-03-07T18:56:25.209Z,4.68
2023-03-07T18:58:58.465Z,4.80
2023-03-07T19:01:26.659Z,7.30
2023-03-07T19:03:54.463Z,5.00
2023-03-07T19:09:03.657Z,4.35
2023-03-07T19:11:30.021Z,7.72
2023-03-07T19:13:56.956Z,5.40
2023-03-07T19:16:26.998Z,4.85
2023-03-07T19:19:14.966Z,5.28
2023-03-07T19:21:40.792Z,4.93
2023-03-07T19:24:07.273Z,3.67
2023-03-07T19:26:33.818Z,5.55
2023-03-07T19:28:59.803Z,4.88
2023-03-07T19:31:29.914Z,4.50
2023-03-07T19:33:57.370Z,4.95
2023-03-07T19:36:27.676Z,4.28
2023-03-07T19:38:54.909Z,5.72
2023-03-07T19:41:21.753Z,7.05
2023-03-07T19:43:47.949Z,4.93
2023-03-07T19:46:14.618Z,7.07
2023-03-07T19:48:52.927Z,4.97
2023-03-07T19:51:20.074Z,4.35
2023-03-07T19:53:47.169Z,4.40
2023-03-07T19:56:14.337Z,5.10
2023-03-07T19:58:40.123Z,5.35
2023-03-07T20:01:10.219Z,4.70
2023-03-07T20:03:36.808Z,5.43
2023-03-07T20:06:03.331Z,5.05
2023-03-07T20:08:32.748Z,7.40
2023-03-07T20:11:09.666Z,6.70
2023-03-07T20:13:35.925Z,5.47
2023-03-07T20:16:01.894Z,7.60
2023-03-07T20:21:16.557Z,6.80
2023-03-07T20:23:43.700Z,5.23
2023-03-07T20:26:13.533Z,6.20
2023-03-07T20:28:39.365Z,4.75
2023-03-07T20:31:08.238Z,7.35
2023-03-07T20:33:35.190Z,5.03
2023-03-07T20:36:03.300Z,5.30
2023-03-07T20:38:29.988Z,6.40
2023-03-07T20:41:02.859Z,6.15
2023-03-07T20:43:29.700Z,5.13
2023-03-07T20:45:55.694Z,5.85
2023-03-07T20:48:26.986Z,7.87
2023-03-07T20:50:53.014Z,7.27
2023-03-07T20:53:19.369Z,6.43
2023-03-07T20:55:45.332Z,5.05
2023-03-07T20:58:11.486Z,3.00
2023-03-07T21:00:37.341Z,6.13
2023-03-07T21:03:05.921Z,10.35
2023-03-07T21:05:32.240Z,5.32
2023-03-07T21:07:58.789Z,4.53
2023-03-07T21:10:25.157Z,3.60
2023-03-07T21:12:52.731Z,4.10
2023-03-07T21:15:19.325Z,7.15
2023-03-07T21:17:57.468Z,6.20
2023-03-07T21:20:23.354Z,6.37
2023-03-07T21:22:49.141Z,4.00
2023-03-07T21:25:15.042Z,5.97
2023-03-07T21:27:41.722Z,7.63
2023-03-07T21:30:08.160Z,3.50
2023-03-07T21:32:34.425Z,4.40
2023-03-07T21:35:00.439Z,4.63
2023-03-07T21:37:26.348Z,4.03
2023-03-07T21:39:52.155Z,5.70
2023-03-07T21:42:18.094Z,3.60
2023-03-07T21:44:44.414Z,3.20
2023-03-07T21:47:12.484Z,4.13
2023-03-07T21:49:38.921Z,6.23
2023-03-07T21:52:04.862Z,3.43
2023-03-07T21:54:30.853Z,3.37
2023-03-07T21:56:56.589Z,5.47
2023-03-07T21:59:22.466Z,4.87
2023-03-07T22:01:48.308Z,7.57
2023-03-07T22:04:14.082Z,3.97
2023-03-07T22:06:39.922Z,5.57
2023-03-07T22:09:05.723Z,6.70
2023-03-07T22:11:31.564Z,3.80
2023-03-07T22:13:57.409Z,4.00
2023-03-07T22:16:23.467Z,8.23
2023-03-07T22:18:55.186Z,3.53
2023-03-07T22:21:20.973Z,3.83
2023-03-07T22:23:46.914Z,4.07
2023-03-07T22:26:12.917Z,4.85
2023-03-07T22:28:40.072Z,3.70
2023-03-07T22:31:10.102Z,2.50
2023-03-07T22:33:36.142Z,4.40
2023-03-07T22:36:03.666Z,6.77
2023-03-07T22:38:29.758Z,7.75
2023-03-07T22:41:02.722Z,6.70
2023-03-07T22:43:30.228Z,4.67
2023-03-07T22:45:56.254Z,2.63
2023-03-07T22:48:30.097Z,6.30
2023-03-07T22:50:56.013Z,6.75
2023-03-07T22:53:22.092Z,3.90
2023-03-07T22:55:48.000Z,4.57
2023-03-07T22:58:14.154Z,6.25
2023-03-07T23:00:40.719Z,4.27
2023-03-07T23:03:06.616Z,3.30
2023-03-07T23:05:32.831Z,5.57
2023-03-07T23:07:59.134Z,5.77
2023-03-07T23:10:25.985Z,5.97
2023-03-07T23:12:52.120Z,5.30
2023-03-07T23:15:18.134Z,4.17
2023-03-07T23:17:52.889Z,6.37
2023-03-07T23:20:19.325Z,3.17
2023-03-07T23:22:45.531Z,10.67
2023-03-07T23:25:11.491Z,6.10
2023-03-07T23:27:37.215Z,6.87
2023-03-07T23:30:04.462Z,4.63
2023-03-07T23:32:30.305Z,5.10
2023-03-07T23:34:56.068Z,5.33
2023-03-07T23:37:21.775Z,7.83
2023-03-07T23:39:47.524Z,5.23
2023-03-07T23:42:13.630Z,5.00
2023-03-07T23:44:39.605Z,3.93
2023-03-07T23:47:05.591Z,4.57
2023-03-07T23:49:31.339Z,3.87
2023-03-07T23:51:57.069Z,5.30
2023-03-07T23:54:23.027Z,7.60
2023-03-07T23:56:48.748Z,5.47
2023-03-07T23:59:14.570Z,9.57
